sensor_id;sensor_type;location;lat;lon;timestamp;P1;durP1;ratioP1;P2;durP2;ratioP2
58752;SDS011;44525;46.052;13.610;2023-05-31T00:01:12;10.90;;;6.43;;
58752;SDS011;44525;46.052;13.610;2023-05-31T00:03:38;11.75;;;6.60;;
58752;SDS011;44525;46.052;13.610;2023-05-31T00:06:06;10.10;;;7.03;;
58752;SDS011;44525;46.052;13.610;2023-05-31T00:08:32;10.40;;;6.88;;
58752;SDS011;44525;46.052;13.610;2023-05-31T00:10:57;10.40;;;6.80;;
58752;SDS011;44525;46.052;13.610;2023-05-31T00:13:23;11.18;;;6.88;;
58752;SDS011;44525;46.052;13.610;2023-05-31T00:15:48;12.27;;;7.22;;
58752;SDS011;44525;46.052;13.610;2023-05-31T00:18:13;11.02;;;7.10;;
58752;SDS011;44525;46.052;13.610;2023-05-31T00:20:39;11.55;;;6.32;;
58752;SDS011;44525;46.052;13.610;2023-05-31T00:23:04;9.20;;;6.47;;
58752;SDS011;44525;46.052;13.610;2023-05-31T00:25:29;11.48;;;7.18;;
58752;SDS011;44525;46.052;13.610;2023-05-31T00:27:55;11.13;;;6.78;;
58752;SDS011;44525;46.052;13.610;2023-05-31T00:30:21;12.15;;;7.43;;
58752;SDS011;44525;46.052;13.610;2023-05-31T00:32:47;12.07;;;6.72;;
58752;SDS011;44525;46.052;13.610;2023-05-31T00:35:12;12.68;;;7.03;;
58752;SDS011;44525;46.052;13.610;2023-05-31T00:37:38;11.13;;;6.80;;
58752;SDS011;44525;46.052;13.610;2023-05-31T00:40:04;14.30;;;6.72;;
58752;SDS011;44525;46.052;13.610;2023-05-31T00:42:31;11.32;;;7.10;;
58752;SDS011;44525;46.052;13.610;2023-05-31T00:44:56;11.30;;;7.20;;
58752;SDS011;44525;46.052;13.610;2023-05-31T00:47:22;10.43;;;6.72;;
58752;SDS011;44525;46.052;13.610;2023-05-31T00:49:48;11.48;;;6.78;;
58752;SDS011;44525;46.052;13.610;2023-05-31T00:52:13;10.55;;;7.15;;
58752;SDS011;44525;46.052;13.610;2023-05-31T00:54:39;10.55;;;6.63;;
58752;SDS011;44525;46.052;13.610;2023-05-31T00:57:04;12.57;;;7.38;;
58752;SDS011;44525;46.052;13.610;2023-05-31T00:59:30;10.80;;;6.80;;
58752;SDS011;44525;46.052;13.610;2023-05-31T01:01:55;11.95;;;6.65;;
58752;SDS011;44525;46.052;13.610;2023-05-31T01:04:22;12.07;;;7.00;;
58752;SDS011;44525;46.052;13.610;2023-05-31T01:06:48;9.88;;;6.70;;
58752;SDS011;44525;46.052;13.610;2023-05-31T01:09:15;12.18;;;7.28;;
58752;SDS011;44525;46.052;13.610;2023-05-31T01:19:58;11.93;;;6.57;;
58752;SDS011;44525;46.052;13.610;2023-05-31T01:25:31;12.30;;;7.65;;
58752;SDS011;44525;46.052;13.610;2023-05-31T01:28:00;12.23;;;7.65;;
58752;SDS011;44525;46.052;13.610;2023-05-31T01:30:27;13.15;;;6.53;;
58752;SDS011;44525;46.052;13.610;2023-05-31T01:32:55;12.30;;;7.65;;
58752;SDS011;44525;46.052;13.610;2023-05-31T01:35:22;10.35;;;6.82;;
58752;SDS011;44525;46.052;13.610;2023-05-31T01:37:47;9.95;;;6.55;;
58752;SDS011;44525;46.052;13.610;2023-05-31T01:40:13;14.95;;;6.75;;
58752;SDS011;44525;46.052;13.610;2023-05-31T01:42:40;10.45;;;7.15;;
58752;SDS011;44525;46.052;13.610;2023-05-31T01:45:09;9.40;;;6.35;;
58752;SDS011;44525;46.052;13.610;2023-05-31T01:47:35;11.38;;;6.65;;
58752;SDS011;44525;46.052;13.610;2023-05-31T01:50:05;10.35;;;6.47;;
58752;SDS011;44525;46.052;13.610;2023-05-31T01:52:31;11.68;;;6.70;;
58752;SDS011;44525;46.052;13.610;2023-05-31T01:54:59;12.45;;;7.25;;
58752;SDS011;44525;46.052;13.610;2023-05-31T01:57:25;10.48;;;7.40;;
58752;SDS011;44525;46.052;13.610;2023-05-31T01:59:52;10.20;;;6.60;;
58752;SDS011;44525;46.052;13.610;2023-05-31T02:02:18;10.52;;;6.88;;
58752;SDS011;44525;46.052;13.610;2023-05-31T02:04:44;12.65;;;6.97;;
58752;SDS011;44525;46.052;13.610;2023-05-31T02:07:10;9.98;;;6.65;;
58752;SDS011;44525;46.052;13.610;2023-05-31T02:09:37;10.88;;;6.60;;
58752;SDS011;44525;46.052;13.610;2023-05-31T02:12:03;12.57;;;6.57;;
58752;SDS011;44525;46.052;13.610;2023-05-31T02:14:28;12.68;;;7.30;;
58752;SDS011;44525;46.052;13.610;2023-05-31T02:16:54;11.88;;;6.43;;
58752;SDS011;44525;46.052;13.610;2023-05-31T02:19:19;10.82;;;7.00;;
58752;SDS011;44525;46.052;13.610;2023-05-31T02:21:44;10.05;;;7.05;;
58752;SDS011;44525;46.052;13.610;2023-05-31T02:24:10;11.45;;;6.80;;
58752;SDS011;44525;46.052;13.610;2023-05-31T02:26:35;10.57;;;6.68;;
58752;SDS011;44525;46.052;13.610;2023-05-31T02:29:01;11.35;;;6.40;;
58752;SDS011;44525;46.052;13.610;2023-05-31T02:31:26;10.15;;;6.32;;
58752;SDS011;44525;46.052;13.610;2023-05-31T02:33:52;10.18;;;7.28;;
58752;SDS011;44525;46.052;13.610;2023-05-31T02:36:17;11.70;;;6.93;;
58752;SDS011;44525;46.052;13.610;2023-05-31T02:38:43;10.35;;;7.15;;
58752;SDS011;44525;46.052;13.610;2023-05-31T02:41:09;10.57;;;7.18;;
58752;SDS011;44525;46.052;13.610;2023-05-31T02:43:34;11.80;;;6.80;;
58752;SDS011;44525;46.052;13.610;2023-05-31T02:46:00;11.68;;;6.88;;
58752;SDS011;44525;46.052;13.610;2023-05-31T02:48:27;10.00;;;6.60;;
58752;SDS011;44525;46.052;13.610;2023-05-31T02:50:54;11.15;;;7.20;;
58752;SDS011;44525;46.052;13.610;2023-05-31T02:53:19;10.25;;;6.40;;
58752;SDS011;44525;46.052;13.610;2023-05-31T02:55:44;12.95;;;7.32;;
58752;SDS011;44525;46.052;13.610;2023-05-31T02:58:10;12.52;;;6.80;;
58752;SDS011;44525;46.052;13.610;2023-05-31T03:00:35;11.60;;;6.20;;
58752;SDS011;44525;46.052;13.610;2023-05-31T03:03:01;9.05;;;6.45;;
58752;SDS011;44525;46.052;13.610;2023-05-31T03:05:26;10.57;;;6.50;;
58752;SDS011;44525;46.052;13.610;2023-05-31T03:07:54;13.32;;;6.70;;
58752;SDS011;44525;46.052;13.610;2023-05-31T03:10:19;9.75;;;6.40;;
58752;SDS011;44525;46.052;13.610;2023-05-31T03:12:44;11.65;;;6.85;;
58752;SDS011;44525;46.052;13.610;2023-05-31T03:15:10;12.82;;;6.50;;
58752;SDS011;44525;46.052;13.610;2023-05-31T03:17:35;9.93;;;6.20;;
58752;SDS011;44525;46.052;13.610;2023-05-31T03:20:02;10.88;;;6.95;;
58752;SDS011;44525;46.052;13.610;2023-05-31T03:22:29;9.95;;;6.47;;
58752;SDS011;44525;46.052;13.610;2023-05-31T03:24:54;11.90;;;6.50;;
58752;SDS011;44525;46.052;13.610;2023-05-31T03:27:19;12.02;;;6.65;;
58752;SDS011;44525;46.052;13.610;2023-05-31T03:29:45;13.73;;;7.18;;
58752;SDS011;44525;46.052;13.610;2023-05-31T03:32:10;11.57;;;7.07;;
58752;SDS011;44525;46.052;13.610;2023-05-31T03:34:36;10.25;;;6.60;;
58752;SDS011;44525;46.052;13.610;2023-05-31T03:37:01;11.20;;;6.55;;
58752;SDS011;44525;46.052;13.610;2023-05-31T03:39:27;9.75;;;6.43;;
58752;SDS011;44525;46.052;13.610;2023-05-31T03:41:52;11.82;;;6.50;;
58752;SDS011;44525;46.052;13.610;2023-05-31T03:44:18;9.20;;;6.22;;
58752;SDS011;44525;46.052;13.610;2023-05-31T03:46:43;13.88;;;7.35;;
58752;SDS011;44525;46.052;13.610;2023-05-31T03:49:08;12.70;;;6.68;;
58752;SDS011;44525;46.052;13.610;2023-05-31T03:51:34;11.48;;;6.80;;
58752;SDS011;44525;46.052;13.610;2023-05-31T03:53:59;11.80;;;6.00;;
58752;SDS011;44525;46.052;13.610;2023-05-31T03:56:25;10.40;;;6.47;;
58752;SDS011;44525;46.052;13.610;2023-05-31T03:58:50;10.38;;;6.75;;
58752;SDS011;44525;46.052;13.610;2023-05-31T04:01:15;10.05;;;6.38;;
58752;SDS011;44525;46.052;13.610;2023-05-31T04:03:42;10.65;;;6.68;;
58752;SDS011;44525;46.052;13.610;2023-05-31T04:06:08;13.25;;;6.82;;
58752;SDS011;44525;46.052;13.610;2023-05-31T04:08:33;11.63;;;6.95;;
58752;SDS011;44525;46.052;13.610;2023-05-31T04:10:59;12.60;;;6.95;;
58752;SDS011;44525;46.052;13.610;2023-05-31T04:13:24;11.23;;;6.28;;
58752;SDS011;44525;46.052;13.610;2023-05-31T04:15:50;12.65;;;7.00;;
58752;SDS011;44525;46.052;13.610;2023-05-31T04:18:15;14.07;;;7.32;;
58752;SDS011;44525;46.052;13.610;2023-05-31T04:20:41;12.30;;;6.82;;
58752;SDS011;44525;46.052;13.610;2023-05-31T04:23:06;11.43;;;7.05;;
58752;SDS011;44525;46.052;13.610;2023-05-31T04:25:31;12.98;;;7.25;;
58752;SDS011;44525;46.052;13.610;2023-05-31T04:27:57;12.27;;;6.78;;
58752;SDS011;44525;46.052;13.610;2023-05-31T04:30:22;11.27;;;6.63;;
58752;SDS011;44525;46.052;13.610;2023-05-31T04:32:49;10.80;;;6.40;;
58752;SDS011;44525;46.052;13.610;2023-05-31T04:35:16;14.13;;;7.50;;
58752;SDS011;44525;46.052;13.610;2023-05-31T04:37:42;9.88;;;6.95;;
58752;SDS011;44525;46.052;13.610;2023-05-31T04:40:07;11.60;;;7.07;;
58752;SDS011;44525;46.052;13.610;2023-05-31T04:42:36;10.13;;;6.57;;
58752;SDS011;44525;46.052;13.610;2023-05-31T04:45:02;10.98;;;6.78;;
58752;SDS011;44525;46.052;13.610;2023-05-31T04:47:29;12.18;;;6.82;;
58752;SDS011;44525;46.052;13.610;2023-05-31T04:49:55;10.82;;;6.88;;
58752;SDS011;44525;46.052;13.610;2023-05-31T04:52:25;10.70;;;6.07;;
58752;SDS011;44525;46.052;13.610;2023-05-31T04:55:00;12.48;;;6.30;;
58752;SDS011;44525;46.052;13.610;2023-05-31T04:57:26;10.10;;;6.60;;
58752;SDS011;44525;46.052;13.610;2023-05-31T04:59:53;12.38;;;6.38;;
58752;SDS011;44525;46.052;13.610;2023-05-31T05:02:21;9.05;;;6.03;;
58752;SDS011;44525;46.052;13.610;2023-05-31T05:04:47;13.07;;;6.93;;
58752;SDS011;44525;46.052;13.610;2023-05-31T05:07:16;10.75;;;6.55;;
58752;SDS011;44525;46.052;13.610;2023-05-31T05:09:42;10.93;;;6.80;;
58752;SDS011;44525;46.052;13.610;2023-05-31T05:12:08;13.63;;;6.15;;
58752;SDS011;44525;46.052;13.610;2023-05-31T05:14:34;9.63;;;6.10;;
58752;SDS011;44525;46.052;13.610;2023-05-31T05:16:59;12.13;;;6.53;;
58752;SDS011;44525;46.052;13.610;2023-05-31T05:19:24;9.02;;;5.65;;
58752;SDS011;44525;46.052;13.610;2023-05-31T05:21:50;11.93;;;6.38;;
58752;SDS011;44525;46.052;13.610;2023-05-31T05:24:16;11.70;;;5.88;;
58752;SDS011;44525;46.052;13.610;2023-05-31T05:26:41;9.95;;;6.13;;
58752;SDS011;44525;46.052;13.610;2023-05-31T05:29:08;9.45;;;5.90;;
58752;SDS011;44525;46.052;13.610;2023-05-31T05:31:33;14.18;;;6.95;;
58752;SDS011;44525;46.052;13.610;2023-05-31T05:33:59;11.48;;;6.55;;
58752;SDS011;44525;46.052;13.610;2023-05-31T05:36:24;11.50;;;6.38;;
58752;SDS011;44525;46.052;13.610;2023-05-31T05:38:50;13.15;;;6.75;;
58752;SDS011;44525;46.052;13.610;2023-05-31T05:41:15;10.73;;;6.25;;
58752;SDS011;44525;46.052;13.610;2023-05-31T05:43:41;13.57;;;7.18;;
58752;SDS011;44525;46.052;13.610;2023-05-31T05:46:07;11.25;;;6.20;;
58752;SDS011;44525;46.052;13.610;2023-05-31T05:48:32;10.93;;;6.68;;
58752;SDS011;44525;46.052;13.610;2023-05-31T05:50:58;9.93;;;6.13;;
58752;SDS011;44525;46.052;13.610;2023-05-31T05:53:24;11.60;;;6.63;;
58752;SDS011;44525;46.052;13.610;2023-05-31T05:55:53;11.48;;;6.15;;
58752;SDS011;44525;46.052;13.610;2023-05-31T05:58:19;11.77;;;6.40;;
58752;SDS011;44525;46.052;13.610;2023-05-31T06:00:45;12.10;;;6.20;;
58752;SDS011;44525;46.052;13.610;2023-05-31T06:03:11;10.23;;;5.93;;
58752;SDS011;44525;46.052;13.610;2023-05-31T06:05:37;10.43;;;6.05;;
58752;SDS011;44525;46.052;13.610;2023-05-31T06:08:03;13.15;;;6.22;;
58752;SDS011;44525;46.052;13.610;2023-05-31T06:10:29;10.25;;;5.72;;
58752;SDS011;44525;46.052;13.610;2023-05-31T06:12:54;11.98;;;6.15;;
58752;SDS011;44525;46.052;13.610;2023-05-31T06:15:20;9.85;;;6.40;;
58752;SDS011;44525;46.052;13.610;2023-05-31T06:17:45;11.70;;;6.22;;
58752;SDS011;44525;46.052;13.610;2023-05-31T06:20:13;11.00;;;6.15;;
58752;SDS011;44525;46.052;13.610;2023-05-31T06:22:38;12.88;;;6.18;;
58752;SDS011;44525;46.052;13.610;2023-05-31T06:25:04;12.13;;;6.32;;
58752;SDS011;44525;46.052;13.610;2023-05-31T06:27:30;10.52;;;6.40;;
58752;SDS011;44525;46.052;13.610;2023-05-31T06:29:55;11.68;;;5.75;;
58752;SDS011;44525;46.052;13.610;2023-05-31T06:32:26;9.13;;;6.30;;
58752;SDS011;44525;46.052;13.610;2023-05-31T06:34:53;11.35;;;5.95;;
58752;SDS011;44525;46.052;13.610;2023-05-31T06:37:18;9.70;;;6.25;;
58752;SDS011;44525;46.052;13.610;2023-05-31T06:39:45;11.50;;;5.70;;
58752;SDS011;44525;46.052;13.610;2023-05-31T06:42:10;9.48;;;6.00;;
58752;SDS011;44525;46.052;13.610;2023-05-31T06:44:36;7.75;;;5.43;;
58752;SDS011;44525;46.052;13.610;2023-05-31T06:47:02;9.02;;;5.70;;
58752;SDS011;44525;46.052;13.610;2023-05-31T06:49:28;10.15;;;5.65;;
58752;SDS011;44525;46.052;13.610;2023-05-31T06:51:53;8.95;;;5.22;;
58752;SDS011;44525;46.052;13.610;2023-05-31T06:54:18;11.35;;;5.40;;
58752;SDS011;44525;46.052;13.610;2023-05-31T06:56:44;12.25;;;5.05;;
58752;SDS011;44525;46.052;13.610;2023-05-31T06:59:09;12.02;;;5.72;;
58752;SDS011;44525;46.052;13.610;2023-05-31T07:01:35;9.77;;;5.47;;
58752;SDS011;44525;46.052;13.610;2023-05-31T07:04:00;9.10;;;5.22;;
58752;SDS011;44525;46.052;13.610;2023-05-31T07:06:26;9.48;;;4.93;;
58752;SDS011;44525;46.052;13.610;2023-05-31T07:08:51;7.65;;;4.57;;
58752;SDS011;44525;46.052;13.610;2023-05-31T07:11:17;12.95;;;5.70;;
58752;SDS011;44525;46.052;13.610;2023-05-31T07:13:42;8.48;;;4.60;;
58752;SDS011;44525;46.052;13.610;2023-05-31T07:16:07;7.63;;;5.05;;
58752;SDS011;44525;46.052;13.610;2023-05-31T07:18:33;8.65;;;5.03;;
58752;SDS011;44525;46.052;13.610;2023-05-31T07:20:58;7.72;;;4.57;;
58752;SDS011;44525;46.052;13.610;2023-05-31T07:23:24;8.77;;;4.65;;
58752;SDS011;44525;46.052;13.610;2023-05-31T07:25:50;9.63;;;5.50;;
58752;SDS011;44525;46.052;13.610;2023-05-31T07:28:15;7.13;;;4.35;;
58752;SDS011;44525;46.052;13.610;2023-05-31T07:30:40;8.07;;;4.25;;
58752;SDS011;44525;46.052;13.610;2023-05-31T07:33:05;14.27;;;5.00;;
58752;SDS011;44525;46.052;13.610;2023-05-31T07:35:31;10.73;;;4.55;;
58752;SDS011;44525;46.052;13.610;2023-05-31T07:37:56;11.90;;;5.18;;
58752;SDS011;44525;46.052;13.610;2023-05-31T07:40:21;10.02;;;4.22;;
58752;SDS011;44525;46.052;13.610;2023-05-31T07:42:47;11.13;;;4.80;;
58752;SDS011;44525;46.052;13.610;2023-05-31T07:45:12;19.05;;;5.20;;
58752;SDS011;44525;46.052;13.610;2023-05-31T07:47:37;9.18;;;4.28;;
58752;SDS011;44525;46.052;13.610;2023-05-31T07:50:03;7.35;;;4.40;;
58752;SDS011;44525;46.052;13.610;2023-05-31T07:52:29;9.77;;;4.80;;
58752;SDS011;44525;46.052;13.610;2023-05-31T07:54:55;8.40;;;4.25;;
58752;SDS011;44525;46.052;13.610;2023-05-31T07:57:20;13.35;;;4.97;;
58752;SDS011;44525;46.052;13.610;2023-05-31T07:59:45;8.52;;;4.88;;
58752;SDS011;44525;46.052;13.610;2023-05-31T08:02:11;7.25;;;4.70;;
58752;SDS011;44525;46.052;13.610;2023-05-31T08:04:37;10.20;;;4.82;;
58752;SDS011;44525;46.052;13.610;2023-05-31T08:07:02;6.88;;;4.45;;
58752;SDS011;44525;46.052;13.610;2023-05-31T08:09:28;9.13;;;4.68;;
58752;SDS011;44525;46.052;13.610;2023-05-31T08:11:53;6.80;;;4.60;;
58752;SDS011;44525;46.052;13.610;2023-05-31T08:14:18;6.88;;;4.80;;
58752;SDS011;44525;46.052;13.610;2023-05-31T08:16:44;7.78;;;4.70;;
58752;SDS011;44525;46.052;13.610;2023-05-31T08:19:10;8.02;;;4.70;;
58752;SDS011;44525;46.052;13.610;2023-05-31T08:21:35;7.90;;;4.60;;
58752;SDS011;44525;46.052;13.610;2023-05-31T08:24:02;9.55;;;4.63;;
58752;SDS011;44525;46.052;13.610;2023-05-31T08:26:30;11.63;;;5.13;;
58752;SDS011;44525;46.052;13.610;2023-05-31T08:28:56;7.70;;;4.50;;
58752;SDS011;44525;46.052;13.610;2023-05-31T08:31:21;12.35;;;5.32;;
58752;SDS011;44525;46.052;13.610;2023-05-31T08:33:57;8.27;;;4.38;;
58752;SDS011;44525;46.052;13.610;2023-05-31T08:36:23;8.23;;;4.63;;
58752;SDS011;44525;46.052;13.610;2023-05-31T08:38:49;7.25;;;4.20;;
58752;SDS011;44525;46.052;13.610;2023-05-31T08:41:14;11.07;;;4.78;;
58752;SDS011;44525;46.052;13.610;2023-05-31T08:43:41;10.70;;;5.20;;
58752;SDS011;44525;46.052;13.610;2023-05-31T08:46:07;10.48;;;4.80;;
58752;SDS011;44525;46.052;13.610;2023-05-31T08:48:35;9.45;;;4.90;;
58752;SDS011;44525;46.052;13.610;2023-05-31T08:51:10;8.57;;;4.88;;
58752;SDS011;44525;46.052;13.610;2023-05-31T08:53:38;9.13;;;4.65;;
58752;SDS011;44525;46.052;13.610;2023-05-31T08:56:05;6.95;;;4.25;;
58752;SDS011;44525;46.052;13.610;2023-05-31T08:58:33;10.77;;;5.00;;
58752;SDS011;44525;46.052;13.610;2023-05-31T09:01:01;8.07;;;4.93;;
58752;SDS011;44525;46.052;13.610;2023-05-31T09:03:27;7.13;;;4.72;;
58752;SDS011;44525;46.052;13.610;2023-05-31T09:05:53;7.15;;;4.93;;
58752;SDS011;44525;46.052;13.610;2023-05-31T09:08:19;9.50;;;5.07;;
58752;SDS011;44525;46.052;13.610;2023-05-31T09:10:44;8.77;;;5.05;;
58752;SDS011;44525;46.052;13.610;2023-05-31T09:13:10;7.90;;;4.90;;
58752;SDS011;44525;46.052;13.610;2023-05-31T09:15:35;9.38;;;5.38;;
58752;SDS011;44525;46.052;13.610;2023-05-31T09:18:20;8.27;;;4.80;;
58752;SDS011;44525;46.052;13.610;2023-05-31T09:20:47;9.20;;;5.10;;
58752;SDS011;44525;46.052;13.610;2023-05-31T09:23:13;11.57;;;5.70;;
58752;SDS011;44525;46.052;13.610;2023-05-31T09:25:43;10.05;;;4.68;;
58752;SDS011;44525;46.052;13.610;2023-05-31T09:28:08;11.52;;;5.60;;
58752;SDS011;44525;46.052;13.610;2023-05-31T09:30:34;6.85;;;4.55;;
58752;SDS011;44525;46.052;13.610;2023-05-31T09:33:01;11.32;;;5.50;;
58752;SDS011;44525;46.052;13.610;2023-05-31T09:35:26;10.07;;;5.15;;
58752;SDS011;44525;46.052;13.610;2023-05-31T09:37:52;8.68;;;4.82;;
58752;SDS011;44525;46.052;13.610;2023-05-31T09:40:25;13.57;;;4.88;;
58752;SDS011;44525;46.052;13.610;2023-05-31T09:42:52;10.52;;;5.20;;
58752;SDS011;44525;46.052;13.610;2023-05-31T09:45:18;13.73;;;5.65;;
58752;SDS011;44525;46.052;13.610;2023-05-31T09:47:45;12.27;;;6.05;;
58752;SDS011;44525;46.052;13.610;2023-05-31T09:50:11;12.57;;;5.80;;
58752;SDS011;44525;46.052;13.610;2023-05-31T09:52:42;10.82;;;5.47;;
58752;SDS011;44525;46.052;13.610;2023-05-31T09:55:10;12.68;;;5.97;;
58752;SDS011;44525;46.052;13.610;2023-05-31T09:57:37;10.10;;;5.25;;
58752;SDS011;44525;46.052;13.610;2023-05-31T10:00:24;12.52;;;6.63;;
58752;SDS011;44525;46.052;13.610;2023-05-31T10:02:51;12.50;;;6.03;;
58752;SDS011;44525;46.052;13.610;2023-05-31T10:05:19;11.93;;;5.63;;
58752;SDS011;44525;46.052;13.610;2023-05-31T10:07:49;10.80;;;6.13;;
58752;SDS011;44525;46.052;13.610;2023-05-31T10:10:16;12.45;;;6.78;;
58752;SDS011;44525;46.052;13.610;2023-05-31T10:15:22;9.93;;;5.45;;
58752;SDS011;44525;46.052;13.610;2023-05-31T10:17:56;11.00;;;6.28;;
58752;SDS011;44525;46.052;13.610;2023-05-31T10:20:27;11.73;;;6.32;;
58752;SDS011;44525;46.052;13.610;2023-05-31T10:22:57;9.80;;;5.95;;
58752;SDS011;44525;46.052;13.610;2023-05-31T10:25:34;12.40;;;6.15;;
58752;SDS011;44525;46.052;13.610;2023-05-31T10:28:19;8.90;;;5.63;;
58752;SDS011;44525;46.052;13.610;2023-05-31T10:30:48;28.73;;;9.02;;
58752;SDS011;44525;46.052;13.610;2023-05-31T10:33:16;29.45;;;8.85;;
58752;SDS011;44525;46.052;13.610;2023-05-31T10:35:44;10.68;;;6.18;;
58752;SDS011;44525;46.052;13.610;2023-05-31T10:38:10;11.25;;;5.70;;
58752;SDS011;44525;46.052;13.610;2023-05-31T10:43:23;92.65;;;15.35;;
58752;SDS011;44525;46.052;13.610;2023-05-31T10:46:00;30.90;;;9.07;;
58752;SDS011;44525;46.052;13.610;2023-05-31T10:50:58;13.82;;;6.85;;
58752;SDS011;44525;46.052;13.610;2023-05-31T10:53:28;10.65;;;6.20;;
58752;SDS011;44525;46.052;13.610;2023-05-31T10:56:02;33.20;;;8.35;;
58752;SDS011;44525;46.052;13.610;2023-05-31T10:58:42;13.80;;;7.03;;
58752;SDS011;44525;46.052;13.610;2023-05-31T11:01:12;38.67;;;8.52;;
58752;SDS011;44525;46.052;13.610;2023-05-31T11:03:51;232.40;;;30.95;;
58752;SDS011;44525;46.052;13.610;2023-05-31T11:06:28;590.15;;;71.75;;
58752;SDS011;44525;46.052;13.610;2023-05-31T11:08:58;362.08;;;43.47;;
58752;SDS011;44525;46.052;13.610;2023-05-31T11:16:27;12.07;;;6.07;;
58752;SDS011;44525;46.052;13.610;2023-05-31T11:21:47;13.00;;;6.22;;
58752;SDS011;44525;46.052;13.610;2023-05-31T11:27:05;11.30;;;6.38;;
58752;SDS011;44525;46.052;13.610;2023-05-31T11:30:17;10.93;;;6.30;;
58752;SDS011;44525;46.052;13.610;2023-05-31T11:34:59;12.38;;;6.30;;
58752;SDS011;44525;46.052;13.610;2023-05-31T11:37:28;13.30;;;6.28;;
58752;SDS011;44525;46.052;13.610;2023-05-31T11:39:55;9.75;;;6.30;;
58752;SDS011;44525;46.052;13.610;2023-05-31T11:42:21;9.73;;;6.03;;
58752;SDS011;44525;46.052;13.610;2023-05-31T11:44:47;12.20;;;6.72;;
58752;SDS011;44525;46.052;13.610;2023-05-31T11:49:50;10.15;;;6.30;;
58752;SDS011;44525;46.052;13.610;2023-05-31T11:52:16;10.52;;;6.80;;
58752;SDS011;44525;46.052;13.610;2023-05-31T11:54:43;11.95;;;6.00;;
58752;SDS011;44525;46.052;13.610;2023-05-31T11:57:10;9.35;;;6.00;;
58752;SDS011;44525;46.052;13.610;2023-05-31T11:59:36;12.30;;;6.35;;
58752;SDS011;44525;46.052;13.610;2023-05-31T12:02:06;15.30;;;6.47;;
58752;SDS011;44525;46.052;13.610;2023-05-31T12:04:34;11.55;;;6.40;;
58752;SDS011;44525;46.052;13.610;2023-05-31T12:07:05;10.32;;;6.32;;
58752;SDS011;44525;46.052;13.610;2023-05-31T12:09:32;13.27;;;6.72;;
58752;SDS011;44525;46.052;13.610;2023-05-31T12:11:59;9.70;;;6.22;;
58752;SDS011;44525;46.052;13.610;2023-05-31T12:14:25;9.65;;;6.30;;
58752;SDS011;44525;46.052;13.610;2023-05-31T12:16:51;13.68;;;6.35;;
58752;SDS011;44525;46.052;13.610;2023-05-31T12:19:17;10.98;;;6.78;;
58752;SDS011;44525;46.052;13.610;2023-05-31T12:21:43;14.63;;;6.45;;
58752;SDS011;44525;46.052;13.610;2023-05-31T12:24:12;9.18;;;5.72;;
58752;SDS011;44525;46.052;13.610;2023-05-31T12:26:39;12.05;;;6.50;;
58752;SDS011;44525;46.052;13.610;2023-05-31T12:29:05;21.42;;;7.68;;
58752;SDS011;44525;46.052;13.610;2023-05-31T12:31:30;10.60;;;6.25;;
58752;SDS011;44525;46.052;13.610;2023-05-31T12:34:06;13.43;;;6.80;;
58752;SDS011;44525;46.052;13.610;2023-05-31T12:39:02;9.30;;;6.35;;
58752;SDS011;44525;46.052;13.610;2023-05-31T12:41:33;12.35;;;6.45;;
58752;SDS011;44525;46.052;13.610;2023-05-31T12:43:58;10.82;;;5.75;;
58752;SDS011;44525;46.052;13.610;2023-05-31T12:46:24;9.32;;;5.95;;
58752;SDS011;44525;46.052;13.610;2023-05-31T12:48:49;10.43;;;6.50;;
58752;SDS011;44525;46.052;13.610;2023-05-31T12:51:24;11.35;;;6.82;;
58752;SDS011;44525;46.052;13.610;2023-05-31T12:53:50;13.23;;;6.63;;
58752;SDS011;44525;46.052;13.610;2023-05-31T12:56:15;12.20;;;6.20;;
58752;SDS011;44525;46.052;13.610;2023-05-31T12:58:41;11.15;;;6.28;;
58752;SDS011;44525;46.052;13.610;2023-05-31T13:01:07;11.63;;;6.78;;
58752;SDS011;44525;46.052;13.610;2023-05-31T13:03:33;12.18;;;5.90;;
58752;SDS011;44525;46.052;13.610;2023-05-31T13:05:58;13.38;;;6.88;;
58752;SDS011;44525;46.052;13.610;2023-05-31T13:08:23;10.10;;;6.30;;
58752;SDS011;44525;46.052;13.610;2023-05-31T13:10:49;11.50;;;6.85;;
58752;SDS011;44525;46.052;13.610;2023-05-31T13:13:14;11.48;;;6.25;;
58752;SDS011;44525;46.052;13.610;2023-05-31T13:15:40;11.57;;;6.13;;
58752;SDS011;44525;46.052;13.610;2023-05-31T13:18:05;10.05;;;6.03;;
58752;SDS011;44525;46.052;13.610;2023-05-31T13:20:31;7.88;;;5.55;;
58752;SDS011;44525;46.052;13.610;2023-05-31T13:22:57;9.25;;;6.22;;
58752;SDS011;44525;46.052;13.610;2023-05-31T13:25:22;9.82;;;5.50;;
58752;SDS011;44525;46.052;13.610;2023-05-31T13:27:47;7.82;;;5.53;;
58752;SDS011;44525;46.052;13.610;2023-05-31T13:30:13;9.18;;;5.93;;
58752;SDS011;44525;46.052;13.610;2023-05-31T13:32:39;10.18;;;6.15;;
58752;SDS011;44525;46.052;13.610;2023-05-31T13:35:06;9.80;;;5.30;;
58752;SDS011;44525;46.052;13.610;2023-05-31T13:37:34;10.38;;;5.70;;
58752;SDS011;44525;46.052;13.610;2023-05-31T13:40:02;9.80;;;5.38;;
58752;SDS011;44525;46.052;13.610;2023-05-31T13:42:28;11.18;;;6.07;;
58752;SDS011;44525;46.052;13.610;2023-05-31T13:44:53;10.82;;;5.78;;
58752;SDS011;44525;46.052;13.610;2023-05-31T13:47:18;11.02;;;5.95;;
58752;SDS011;44525;46.052;13.610;2023-05-31T13:49:44;9.05;;;5.75;;
58752;SDS011;44525;46.052;13.610;2023-05-31T13:52:10;9.43;;;5.78;;
58752;SDS011;44525;46.052;13.610;2023-05-31T13:54:38;9.60;;;5.70;;
58752;SDS011;44525;46.052;13.610;2023-05-31T13:57:03;11.93;;;6.32;;
58752;SDS011;44525;46.052;13.610;2023-05-31T13:59:30;11.68;;;5.95;;
58752;SDS011;44525;46.052;13.610;2023-05-31T14:01:55;10.52;;;6.22;;
58752;SDS011;44525;46.052;13.610;2023-05-31T14:04:20;8.82;;;6.00;;
58752;SDS011;44525;46.052;13.610;2023-05-31T14:06:46;9.70;;;5.82;;
58752;SDS011;44525;46.052;13.610;2023-05-31T14:09:11;9.95;;;6.40;;
58752;SDS011;44525;46.052;13.610;2023-05-31T14:11:37;12.95;;;6.28;;
58752;SDS011;44525;46.052;13.610;2023-05-31T14:14:02;9.18;;;6.32;;
58752;SDS011;44525;46.052;13.610;2023-05-31T14:16:28;12.43;;;6.43;;
58752;SDS011;44525;46.052;13.610;2023-05-31T14:18:53;10.20;;;6.15;;
58752;SDS011;44525;46.052;13.610;2023-05-31T14:21:19;11.10;;;6.40;;
58752;SDS011;44525;46.052;13.610;2023-05-31T14:23:44;9.82;;;6.20;;
58752;SDS011;44525;46.052;13.610;2023-05-31T14:26:10;11.02;;;6.53;;
58752;SDS011;44525;46.052;13.610;2023-05-31T14:28:35;9.15;;;6.40;;
58752;SDS011;44525;46.052;13.610;2023-05-31T14:31:01;11.55;;;6.47;;
58752;SDS011;44525;46.052;13.610;2023-05-31T14:33:27;11.55;;;6.20;;
58752;SDS011;44525;46.052;13.610;2023-05-31T14:35:53;10.82;;;6.57;;
58752;SDS011;44525;46.052;13.610;2023-05-31T14:38:18;8.93;;;6.05;;
58752;SDS011;44525;46.052;13.610;2023-05-31T14:40:43;9.32;;;6.10;;
58752;SDS011;44525;46.052;13.610;2023-05-31T14:43:09;10.75;;;5.75;;
58752;SDS011;44525;46.052;13.610;2023-05-31T14:45:34;9.70;;;5.95;;
58752;SDS011;44525;46.052;13.610;2023-05-31T14:48:00;16.92;;;6.80;;
58752;SDS011;44525;46.052;13.610;2023-05-31T14:50:25;11.52;;;6.53;;
58752;SDS011;44525;46.052;13.610;2023-05-31T14:52:51;11.93;;;6.72;;
58752;SDS011;44525;46.052;13.610;2023-05-31T14:55:17;9.45;;;6.63;;
58752;SDS011;44525;46.052;13.610;2023-05-31T14:57:42;9.30;;;6.55;;
58752;SDS011;44525;46.052;13.610;2023-05-31T15:00:08;9.55;;;6.35;;